Time;durP1;ratioP1;P1;durP2;ratioP2;P2;SDS_P1;SDS_P2;PMS_P1;PMS_P2;Temp;Humidity;BMP_temperature;BMP_pressure;BME280_temperature;BME280_humidity;BME280_pressure;Samples;Min_cycle;Max_cycle;Signal;HPM_P1;HPM_P2
2022/12/13 00:01:49;;;;;;;50.28;24.75;;;-7.00;99.90;;;;;;5049506;28;20057;-75
2022/12/13 00:04:17;;;;;;;51.53;24.27;;;-7.00;99.90;;;;;;5047728;28;20072;-74
2022/12/13 00:06:45;;;;;;;48.15;23.20;;;-7.00;99.90;;;;;;5046880;28;20036;-75
2022/12/13 00:09:14;;;;;;;47.20;23.05;;;-7.10;99.90;;;;;;5038228;28;20081;-73
2022/12/13 00:11:42;;;;;;;48.67;23.65;;;-7.00;99.90;;;;;;5048097;28;20048;-74
2022/12/13 00:14:12;;;;;;;51.75;23.25;;;-7.00;99.90;;;;;;5048729;28;20411;-74
2022/12/13 00:16:44;;;;;;;47.70;23.25;;;-7.00;99.90;;;;;;5056044;28;20446;-72
2022/12/13 00:19:12;;;;;;;43.25;21.83;;;-7.10;99.90;;;;;;5035910;28;20063;-73
2022/12/13 00:21:39;;;;;;;47.20;22.20;;;-7.10;99.90;;;;;;5041235;28;20400;-73
2022/12/13 00:24:07;;;;;;;43.00;22.48;;;-7.00;99.90;;;;;;5039692;28;20193;-74
2022/12/13 00:26:35;;;;;;;42.42;23.02;;;-7.00;99.90;;;;;;5033979;28;20076;-74
2022/12/13 00:29:04;;;;;;;42.45;21.33;;;-6.90;99.90;;;;;;5066206;28;20044;-73
2022/12/13 00:31:32;;;;;;;45.97;21.60;;;-6.90;99.90;;;;;;5050917;28;20041;-76
2022/12/13 00:34:20;;;;;;;49.10;21.85;;;-6.90;99.90;;;;;;5034822;28;20041;-75
2022/12/13 00:36:48;;;;;;;46.08;22.02;;;-6.90;99.90;;;;;;5049488;28;20068;-73
2022/12/13 00:39:17;;;;;;;43.45;21.10;;;-6.90;99.90;;;;;;5033780;28;20107;-74
2022/12/13 00:41:45;;;;;;;42.22;21.10;;;-6.80;99.90;;;;;;5043673;28;20052;-74
2022/12/13 00:44:13;;;;;;;42.05;20.83;;;-6.90;99.90;;;;;;5044362;28;20519;-73
2022/12/13 00:46:41;;;;;;;42.53;20.58;;;-6.90;99.90;;;;;;5029227;28;20103;-73
2022/12/13 00:49:10;;;;;;;36.58;19.23;;;-6.90;99.90;;;;;;5029913;28;20053;-74
2022/12/13 00:51:37;;;;;;;39.78;19.52;;;-6.90;99.90;;;;;;5050647;28;20590;-74
2022/12/13 00:54:05;;;;;;;41.90;20.00;;;-6.90;99.90;;;;;;5048753;28;20063;-73
2022/12/13 00:56:32;;;;;;;43.80;19.38;;;-7.00;99.90;;;;;;5045230;28;20117;-75
2022/12/13 00:59:00;;;;;;;42.42;19.60;;;-7.00;99.90;;;;;;5024697;28;20098;-73
2022/12/13 01:01:30;;;;;;;43.15;19.67;;;-7.10;99.90;;;;;;5046180;28;20048;-75
2022/12/13 01:04:01;;;;;;;30.75;15.60;;;-7.10;99.90;;;;;;5036822;28;20426;-73
2022/12/13 01:06:35;;;;;;;36.43;16.37;;;-7.10;99.90;;;;;;5049082;28;20387;-74
2022/12/13 01:09:04;;;;;;;44.28;19.80;;;-7.10;99.90;;;;;;5041714;28;20076;-75
2022/12/13 01:11:32;;;;;;;38.40;19.52;;;-7.10;99.90;;;;;;5046016;28;20064;-73
2022/12/13 01:13:59;;;;;;;42.65;19.02;;;-7.10;99.90;;;;;;5017076;28;20613;-74
2022/12/13 01:16:27;;;;;;;40.40;19.23;;;-7.10;99.90;;;;;;5026505;28;20472;-73
2022/12/13 01:18:56;;;;;;;41.17;19.48;;;-7.20;99.90;;;;;;5044548;28;20119;-74
2022/12/13 01:21:24;;;;;;;41.78;20.60;;;-7.10;99.90;;;;;;5016065;28;20049;-74
2022/12/13 01:23:51;;;;;;;43.05;20.35;;;-7.20;99.90;;;;;;5049704;28;20043;-72
2022/12/13 01:26:20;;;;;;;48.35;21.02;;;-7.20;99.90;;;;;;5048709;28;20072;-75
2022/12/13 01:28:48;;;;;;;39.70;20.23;;;-7.30;99.90;;;;;;5032036;28;20701;-73
2022/12/13 01:31:18;;;;;;;42.03;20.23;;;-7.30;99.90;;;;;;5026682;28;20606;-72
2022/12/13 01:33:47;;;;;;;41.08;20.83;;;-7.30;99.90;;;;;;5038579;28;20507;-71
2022/12/13 01:36:17;;;;;;;39.28;20.63;;;-7.30;99.90;;;;;;5007448;28;20041;-73
2022/12/13 01:38:45;;;;;;;42.15;20.40;;;-7.30;99.90;;;;;;5038550;28;20120;-73
2022/12/13 01:41:18;;;;;;;45.45;20.55;;;-7.30;99.90;;;;;;5043659;28;20068;-72
2022/12/13 01:43:45;;;;;;;39.97;19.25;;;-7.40;99.90;;;;;;5037503;28;20056;-73
2022/12/13 01:46:14;;;;;;;41.33;19.85;;;-7.40;99.90;;;;;;5037897;28;20371;-72
2022/12/13 01:49:19;;;;;;;43.30;19.42;;;-7.40;99.90;;;;;;5028538;28;20045;-73
2022/12/13 01:51:54;;;;;;;41.25;19.40;;;-7.40;99.90;;;;;;5016398;28;20041;-73
2022/12/13 01:54:33;;;;;;;39.95;17.95;;;-7.50;99.90;;;;;;5032419;28;20072;-72
2022/12/13 01:57:04;;;;;;;43.58;19.20;;;-7.50;99.90;;;;;;5043974;28;20056;-72
2022/12/13 01:59:34;;;;;;;42.33;19.65;;;-7.50;99.90;;;;;;5046750;28;20033;-72
2022/12/13 02:02:02;;;;;;;45.35;20.42;;;-7.50;99.90;;;;;;5045336;28;20124;-72
2022/12/13 02:04:47;;;;;;;36.75;17.83;;;-7.50;99.90;;;;;;5031609;28;20079;-72
2022/12/13 02:07:17;;;;;;;40.03;18.05;;;-7.50;99.90;;;;;;5028766;28;20408;-73
2022/12/13 02:09:56;;;;;;;42.33;19.60;;;-7.50;99.90;;;;;;5042695;28;20057;-72
2022/12/13 02:12:30;;;;;;;36.92;18.00;;;-7.50;99.90;;;;;;5030308;28;20538;-72
2022/12/13 02:15:13;;;;;;;38.08;18.30;;;-7.50;99.90;;;;;;5035277;28;20044;-73
2022/12/13 02:17:55;;;;;;;39.42;17.42;;;-7.50;99.90;;;;;;5035723;28;20119;-72
2022/12/13 02:20:34;;;;;;;39.35;17.58;;;-7.60;99.90;;;;;;5050733;28;20585;-72
2022/12/13 02:23:13;;;;;;;41.95;18.35;;;-7.50;99.90;;;;;;5049952;28;20499;-72
2022/12/13 02:25:55;;;;;;;42.00;20.27;;;-7.50;99.90;;;;;;5047893;28;20331;-73
2022/12/13 02:28:48;;;;;;;37.70;18.35;;;-7.50;99.90;;;;;;5045759;28;20037;-73
2022/12/13 02:31:39;;;;;;;36.50;17.08;;;-7.50;99.90;;;;;;5043946;28;20049;-73
2022/12/13 02:34:42;;;;;;;35.67;16.70;;;-7.50;99.90;;;;;;5043109;28;20046;-73
2022/12/13 02:37:14;;;;;;;36.38;17.02;;;-7.50;99.90;;;;;;5039753;28;20141;-72
2022/12/13 02:39:55;;;;;;;32.40;17.35;;;-7.50;99.90;;;;;;5015542;28;20094;-72
2022/12/13 02:42:29;;;;;;;34.28;16.75;;;-7.50;99.90;;;;;;5035228;28;20064;-73
2022/12/13 02:45:15;;;;;;;38.58;16.75;;;-7.60;99.90;;;;;;5034440;28;20563;-72
2022/12/13 02:47:51;;;;;;;35.15;15.68;;;-7.60;99.90;;;;;;5048655;28;20032;-72
2022/12/13 02:50:19;;;;;;;35.03;17.10;;;-7.60;99.90;;;;;;5027186;28;20054;-72
2022/12/13 02:52:47;;;;;;;34.20;16.17;;;-7.60;99.90;;;;;;5053024;28;20565;-73
2022/12/13 02:55:16;;;;;;;35.88;16.48;;;-7.60;99.90;;;;;;5033928;28;20047;-72
2022/12/13 02:57:44;;;;;;;36.45;17.20;;;-7.60;99.90;;;;;;5050939;28;20057;-73
2022/12/13 03:00:17;;;;;;;33.90;16.50;;;-7.60;99.90;;;;;;5034326;28;20099;-72
2022/12/13 03:02:57;;;;;;;36.35;16.33;;;-7.70;99.90;;;;;;5041484;28;20037;-73
2022/12/13 03:08:46;;;;;;;37.72;17.42;;;-7.80;99.90;;;;;;5044221;28;20437;-73
2022/12/13 03:11:16;;;;;;;35.08;16.73;;;-7.80;99.90;;;;;;5027357;28;20048;-72
2022/12/13 03:13:54;;;;;;;35.33;16.67;;;-7.80;99.90;;;;;;5035265;28;20060;-73
2022/12/13 03:16:40;;;;;;;41.22;17.67;;;-7.70;99.90;;;;;;5050375;28;20329;-73
2022/12/13 03:19:09;;;;;;;36.28;17.40;;;-7.70;99.90;;;;;;5042413;28;20049;-71
2022/12/13 03:21:45;;;;;;;35.17;15.52;;;-7.70;99.90;;;;;;5042217;28;20056;-72
2022/12/13 03:24:19;;;;;;;33.80;16.38;;;-7.80;99.90;;;;;;5051958;28;20471;-74
2022/12/13 03:26:49;;;;;;;31.15;15.48;;;-7.70;99.90;;;;;;5029014;28;20053;-71
2022/12/13 03:29:17;;;;;;;30.55;15.40;;;-7.80;99.90;;;;;;5033828;28;20053;-71
2022/12/13 03:31:51;;;;;;;40.90;17.27;;;-7.80;99.90;;;;;;5034295;28;20060;-71
2022/12/13 03:34:19;;;;;;;36.35;16.25;;;-7.90;99.90;;;;;;5032175;28;20049;-71
2022/12/13 03:36:51;;;;;;;32.90;15.47;;;-7.80;99.90;;;;;;5042065;28;20456;-71
2022/12/13 03:39:18;;;;;;;31.85;16.42;;;-7.80;99.90;;;;;;5034085;28;20059;-72
2022/12/13 03:41:46;;;;;;;37.17;17.33;;;-7.80;99.90;;;;;;5050197;28;20044;-72
2022/12/13 03:44:13;;;;;;;36.45;16.02;;;-7.80;99.90;;;;;;5034530;28;20272;-71
2022/12/13 03:46:41;;;;;;;34.38;16.15;;;-7.90;99.90;;;;;;5034492;28;20123;-72
2022/12/13 03:49:08;;;;;;;34.13;16.95;;;-7.90;99.90;;;;;;5051595;28;20079;-70
2022/12/13 03:51:43;;;;;;;32.13;17.30;;;-7.90;99.90;;;;;;5033638;28;20038;-72
2022/12/13 03:54:10;;;;;;;34.60;16.55;;;-7.90;99.90;;;;;;5038518;28;20041;-72
2022/12/13 03:56:37;;;;;;;34.40;15.10;;;-7.90;99.90;;;;;;5063859;28;20065;-72
2022/12/13 03:59:04;;;;;;;36.65;18.50;;;-7.90;99.90;;;;;;5043386;28;20250;-72
2022/12/13 04:01:32;;;;;;;36.83;16.50;;;-7.90;99.90;;;;;;5034431;28;20036;-72
2022/12/13 04:04:00;;;;;;;35.42;16.70;;;-7.90;99.90;;;;;;5027488;28;20034;-72
2022/12/13 04:06:27;;;;;;;37.70;16.63;;;-7.90;99.90;;;;;;5048988;28;20045;-71
2022/12/13 04:08:59;;;;;;;29.85;14.70;;;-7.90;99.90;;;;;;5044326;28;20068;-72
2022/12/13 04:14:13;;;;;;;32.67;15.65;;;-7.90;99.90;;;;;;5048767;28;20357;-71
2022/12/13 04:16:50;;;;;;;39.47;15.82;;;-7.90;99.90;;;;;;5031101;28;20136;-71
2022/12/13 04:19:19;;;;;;;34.22;17.33;;;-7.90;99.90;;;;;;5041996;28;20057;-71
2022/12/13 04:21:51;;;;;;;32.33;16.80;;;-7.90;99.90;;;;;;5031036;28;20045;-72
2022/12/13 04:24:18;;;;;;;37.05;15.77;;;-7.90;99.90;;;;;;5033779;28;20048;-71
2022/12/13 04:26:46;;;;;;;35.35;16.33;;;-7.90;99.90;;;;;;5028987;28;20500;-71
2022/12/13 04:29:13;;;;;;;36.20;16.73;;;-7.90;99.90;;;;;;5034821;28;20079;-71
2022/12/13 04:31:40;;;;;;;30.23;15.23;;;-7.90;99.90;;;;;;5039287;28;20146;-71
2022/12/13 04:34:08;;;;;;;31.17;15.45;;;-7.80;99.90;;;;;;5036366;28;20482;-71
2022/12/13 04:36:35;;;;;;;32.13;16.10;;;-7.80;99.90;;;;;;5044701;28;20045;-71
2022/12/13 04:39:04;;;;;;;39.30;16.40;;;-7.80;99.90;;;;;;5050065;28;20423;-71
2022/12/13 04:41:51;;;;;;;35.22;16.13;;;-7.70;99.90;;;;;;5049183;28;20045;-72
2022/12/13 04:44:18;;;;;;;32.60;15.18;;;-7.70;99.90;;;;;;5045434;28;20045;-71
2022/12/13 04:46:55;;;;;;;34.40;16.20;;;-7.70;99.90;;;;;;5040739;28;20041;-71
2022/12/13 04:49:29;;;;;;;34.42;16.00;;;-7.70;99.90;;;;;;5038002;28;20042;-71
2022/12/13 04:51:56;;;;;;;36.65;16.10;;;-7.80;99.90;;;;;;5037842;28;20049;-70
2022/12/13 04:54:29;;;;;;;33.25;16.48;;;-7.80;99.90;;;;;;5042583;28;20534;-72
2022/12/13 04:57:08;;;;;;;38.35;16.40;;;-7.80;99.90;;;;;;5041012;28;20499;-72
2022/12/13 04:59:36;;;;;;;37.67;16.23;;;-7.80;99.90;;;;;;5053560;28;20055;-72
2022/12/13 05:02:05;;;;;;;34.92;17.08;;;-7.90;99.90;;;;;;5046204;28;20386;-72
2022/12/13 05:04:33;;;;;;;38.75;16.75;;;-7.90;99.90;;;;;;5039198;28;20037;-72
2022/12/13 05:07:01;;;;;;;38.42;17.10;;;-7.90;99.90;;;;;;5030491;28;20044;-72
2022/12/13 05:09:29;;;;;;;33.33;15.50;;;-7.90;99.90;;;;;;5028729;28;20574;-72
2022/12/13 05:11:56;;;;;;;36.78;16.50;;;-8.00;99.90;;;;;;5030084;28;20040;-72
2022/12/13 05:14:30;;;;;;;37.08;17.80;;;-8.00;99.90;;;;;;5048519;28;20557;-72
2022/12/13 05:16:58;;;;;;;37.42;16.83;;;-8.00;99.90;;;;;;5046351;28;20425;-72
2022/12/13 05:19:26;;;;;;;42.08;19.35;;;-8.00;99.90;;;;;;5046896;28;20041;-72
2022/12/13 05:21:59;;;;;;;43.38;20.27;;;-8.10;99.90;;;;;;5039040;28;20135;-72
2022/12/13 05:24:30;;;;;;;43.53;19.63;;;-8.10;99.90;;;;;;5045518;28;20083;-72
2022/12/13 05:26:58;;;;;;;34.90;18.25;;;-8.00;99.90;;;;;;5038069;28;20041;-72
2022/12/13 05:29:26;;;;;;;36.78;17.65;;;-8.00;99.90;;;;;;5048370;28;20044;-72
2022/12/13 05:31:54;;;;;;;40.50;19.60;;;-8.00;99.90;;;;;;5041562;28;20049;-72
2022/12/13 05:34:21;;;;;;;34.95;17.02;;;-8.00;99.90;;;;;;5045281;28;20062;-72
2022/12/13 05:36:48;;;;;;;35.75;16.77;;;-7.90;99.90;;;;;;5045147;28;20157;-72
2022/12/13 05:39:16;;;;;;;39.75;18.63;;;-7.90;99.90;;;;;;5028758;28;20053;-72
2022/12/13 05:41:58;;;;;;;36.42;17.70;;;-7.90;99.90;;;;;;5047382;28;20415;-71
2022/12/13 05:44:30;;;;;;;39.10;17.90;;;-7.90;99.90;;;;;;5058970;28;20038;-72
2022/12/13 05:46:58;;;;;;;30.73;15.57;;;-7.90;99.90;;;;;;5042680;28;20310;-71
2022/12/13 05:49:29;;;;;;;36.05;16.92;;;-7.90;99.90;;;;;;5028420;28;20465;-71
2022/12/13 05:51:57;;;;;;;37.97;17.52;;;-7.90;99.90;;;;;;5037706;28;20059;-72
2022/12/13 05:54:24;;;;;;;37.17;17.40;;;-7.90;99.90;;;;;;5042506;28;20120;-71
2022/12/13 05:56:51;;;;;;;32.90;16.67;;;-7.90;99.90;;;;;;5044538;28;20163;-71
2022/12/13 05:59:19;;;;;;;39.00;18.55;;;-7.90;99.90;;;;;;5042644;28;20111;-71
2022/12/13 06:01:46;;;;;;;35.70;18.00;;;-8.00;99.90;;;;;;5048489;28;20044;-71
2022/12/13 06:04:13;;;;;;;41.88;18.65;;;-7.90;99.90;;;;;;5043079;28;20034;-72
2022/12/13 06:06:50;;;;;;;39.88;18.55;;;-8.00;99.90;;;;;;5030667;28;20489;-72
2022/12/13 06:09:18;;;;;;;38.08;17.23;;;-8.00;99.90;;;;;;5027575;28;20051;-70
2022/12/13 06:11:46;;;;;;;35.42;16.17;;;-8.00;99.90;;;;;;5048634;28;20049;-74
2022/12/13 06:14:15;;;;;;;34.95;17.20;;;-8.00;99.90;;;;;;5042281;28;20065;-71
2022/12/13 06:16:48;;;;;;;42.28;17.88;;;-8.10;99.90;;;;;;5043444;28;20053;-71
2022/12/13 06:19:15;;;;;;;37.60;17.23;;;-8.10;99.90;;;;;;5047959;28;20049;-71
2022/12/13 06:21:42;;;;;;;37.33;17.70;;;-8.20;99.90;;;;;;5045458;28;20548;-71
2022/12/13 06:24:18;;;;;;;42.83;19.90;;;-8.20;99.90;;;;;;5044170;28;20525;-71
2022/12/13 06:26:46;;;;;;;47.60;20.77;;;-8.20;99.90;;;;;;5048132;28;20389;-71
2022/12/13 06:29:15;;;;;;;43.55;20.40;;;-8.30;99.90;;;;;;5055868;28;20053;-70
2022/12/13 06:31:53;;;;;;;37.65;18.20;;;-8.30;99.90;;;;;;5044847;28;20048;-71
2022/12/13 06:34:31;;;;;;;37.35;18.50;;;-8.30;99.90;;;;;;5033286;28;20038;-71
2022/12/13 06:36:58;;;;;;;36.13;17.77;;;-8.40;99.90;;;;;;5045857;28;20044;-71
2022/12/13 06:39:27;;;;;;;36.97;17.48;;;-8.30;99.90;;;;;;5032068;28;20100;-71
2022/12/13 06:42:00;;;;;;;40.03;19.63;;;-8.30;99.90;;;;;;5021812;28;20119;-71
2022/12/13 06:44:28;;;;;;;35.22;18.05;;;-8.30;99.90;;;;;;5031736;28;20041;-72
2022/12/13 06:46:55;;;;;;;38.20;18.98;;;-8.30;99.90;;;;;;5048038;28;20044;-71
2022/12/13 06:49:37;;;;;;;43.40;18.85;;;-8.30;99.90;;;;;;5048462;28;20037;-72
2022/12/13 06:52:04;;;;;;;40.13;18.70;;;-8.30;99.90;;;;;;5051664;28;20049;-71
2022/12/13 06:54:32;;;;;;;41.50;18.40;;;-8.30;99.90;;;;;;5051054;28;20132;-72
2022/12/13 06:56:59;;;;;;;34.20;17.40;;;-8.20;99.90;;;;;;5033384;28;20056;-72
2022/12/13 06:59:27;;;;;;;37.75;19.23;;;-8.20;99.90;;;;;;5051041;28;20053;-72
2022/12/13 07:01:54;;;;;;;38.35;19.00;;;-8.20;99.90;;;;;;5051473;28;20391;-73
2022/12/13 07:04:31;;;;;;;35.63;17.90;;;-8.10;99.90;;;;;;5042143;28;20041;-72
2022/12/13 07:06:58;;;;;;;40.55;18.75;;;-8.10;99.90;;;;;;5016382;28;20573;-71
2022/12/13 07:09:32;;;;;;;35.30;17.33;;;-8.10;99.90;;;;;;5028303;28;20555;-72
2022/12/13 07:11:59;;;;;;;39.53;17.98;;;-8.00;99.90;;;;;;5025011;28;20088;-72
2022/12/13 07:14:27;;;;;;;39.97;17.65;;;-8.00;99.90;;;;;;5051309;28;20137;-72
2022/12/13 07:16:54;;;;;;;35.80;17.33;;;-7.90;99.90;;;;;;5052574;28;20056;-71
2022/12/13 07:19:30;;;;;;;35.60;17.10;;;-7.90;99.90;;;;;;5044365;28;20045;-72
2022/12/13 07:22:04;;;;;;;40.85;18.63;;;-7.90;99.90;;;;;;5046196;28;20046;-71
2022/12/13 07:24:33;;;;;;;35.60;17.60;;;-7.90;99.90;;;;;;5035500;28;20116;-71
2022/12/13 07:27:02;;;;;;;37.72;18.25;;;-7.90;99.90;;;;;;5015130;28;20048;-72
2022/12/13 07:29:30;;;;;;;36.75;18.38;;;-7.80;99.90;;;;;;5031606;28;20415;-72
2022/12/13 07:31:58;;;;;;;37.45;17.38;;;-7.80;99.90;;;;;;5046955;28;20045;-71
2022/12/13 07:34:28;;;;;;;33.65;16.88;;;-7.80;99.90;;;;;;5051406;28;20357;-72
2022/12/13 07:36:56;;;;;;;38.97;17.05;;;-7.70;99.90;;;;;;5031522;28;20041;-72
2022/12/13 07:39:25;;;;;;;34.60;17.65;;;-7.70;99.90;;;;;;5047991;28;20050;-73
2022/12/13 07:41:56;;;;;;;35.60;17.40;;;-7.60;99.90;;;;;;5037107;28;20045;-72
2022/12/13 07:44:23;;;;;;;37.80;18.23;;;-7.50;99.90;;;;;;5051849;28;20460;-72
2022/12/13 07:46:51;;;;;;;37.85;18.17;;;-7.40;99.90;;;;;;5031290;28;20158;-72
2022/12/13 07:49:19;;;;;;;34.50;17.30;;;-7.40;99.90;;;;;;5053890;28;20642;-72
2022/12/13 07:51:46;;;;;;;35.80;17.70;;;-7.30;99.90;;;;;;5031710;28;20037;-73
2022/12/13 07:54:14;;;;;;;36.38;17.40;;;-7.30;99.90;;;;;;5034441;28;20190;-72
2022/12/13 07:56:41;;;;;;;38.90;17.33;;;-7.20;99.90;;;;;;5019429;28;20038;-72
2022/12/13 07:59:10;;;;;;;36.35;17.67;;;-7.20;99.90;;;;;;5040989;28;20045;-71
2022/12/13 08:01:37;;;;;;;34.90;18.55;;;-7.20;99.90;;;;;;5046839;28;20069;-72
2022/12/13 08:04:05;;;;;;;42.75;20.08;;;-7.20;99.90;;;;;;5039961;28;20041;-72
2022/12/13 08:06:37;;;;;;;42.22;19.30;;;-7.20;99.90;;;;;;5035583;28;20732;-72
2022/12/13 08:09:04;;;;;;;40.35;18.25;;;-7.20;99.90;;;;;;5049301;28;20086;-72
2022/12/13 08:11:32;;;;;;;46.50;18.83;;;-7.10;99.90;;;;;;5051297;28;20045;-72
2022/12/13 08:13:59;;;;;;;37.47;19.30;;;-7.10;99.90;;;;;;5033519;28;20072;-71
2022/12/13 08:16:28;;;;;;;41.97;20.15;;;-7.10;99.90;;;;;;5051197;28;20109;-72
2022/12/13 08:18:58;;;;;;;40.33;19.08;;;-7.10;99.90;;;;;;5044055;28;20075;-74
2022/12/13 08:21:38;;;;;;;37.45;18.15;;;-7.00;99.90;;;;;;5040797;28;20468;-71
2022/12/13 08:24:28;;;;;;;41.25;18.70;;;-6.90;99.90;;;;;;5042938;28;20045;-70
2022/12/13 08:26:59;;;;;;;30.42;17.13;;;-6.90;99.90;;;;;;5031518;28;20045;-70
2022/12/13 08:29:29;;;;;;;39.72;17.95;;;-6.70;99.90;;;;;;5032738;28;20037;-71
2022/12/13 08:32:07;;;;;;;35.13;17.80;;;-6.60;99.90;;;;;;5031893;28;20041;-70
2022/12/13 08:34:35;;;;;;;31.95;17.13;;;-6.50;99.90;;;;;;5049879;28;20495;-71
2022/12/13 08:37:02;;;;;;;36.20;18.23;;;-6.40;99.90;;;;;;5046166;28;20033;-71
2022/12/13 08:39:36;;;;;;;33.53;16.83;;;-6.30;99.90;;;;;;5035785;28;20127;-73
2022/12/13 08:42:13;;;;;;;30.58;15.70;;;-6.30;99.90;;;;;;5044946;28;20126;-71
2022/12/13 08:44:48;;;;;;;35.78;17.42;;;-6.20;99.90;;;;;;5040472;28;20051;-71
2022/12/13 08:47:18;;;;;;;39.78;19.40;;;-6.00;99.90;;;;;;5050285;28;20045;-70
2022/12/13 08:49:58;;;;;;;31.23;16.08;;;-5.90;99.90;;;;;;5047785;28;20135;-71
2022/12/13 08:52:32;;;;;;;30.77;16.05;;;-5.80;99.90;;;;;;5021845;28;20080;-71
2022/12/13 08:55:13;;;;;;;30.90;15.10;;;-5.70;99.90;;;;;;5047008;28;20044;-71
2022/12/13 08:57:42;;;;;;;26.83;15.50;;;-5.70;99.90;;;;;;5048624;28;20045;-71
2022/12/13 09:00:14;;;;;;;32.25;16.95;;;-5.50;99.90;;;;;;5041212;28;20057;-71
2022/12/13 09:02:42;;;;;;;35.45;16.83;;;-5.40;99.90;;;;;;5041572;28;20080;-71
2022/12/13 09:05:11;;;;;;;29.50;16.83;;;-5.30;99.90;;;;;;5026540;28;20472;-70
2022/12/13 09:08:01;;;;;;;35.88;18.15;;;-5.20;99.90;;;;;;5029862;28;20111;-71
2022/12/13 09:10:29;;;;;;;42.38;21.45;;;-5.00;99.90;;;;;;5036633;28;20525;-71
2022/12/13 09:13:05;;;;;;;35.30;18.98;;;-4.80;99.90;;;;;;5048117;28;20060;-69
2022/12/13 09:15:39;;;;;;;35.65;17.90;;;-4.60;99.90;;;;;;5029862;28;20140;-72
2022/12/13 09:18:12;;;;;;;32.70;17.55;;;-4.50;99.90;;;;;;5042332;28;20147;-71
2022/12/13 09:20:41;;;;;;;31.75;16.45;;;-4.40;99.90;;;;;;5046767;28;20048;-70
2022/12/13 09:23:09;;;;;;;33.33;16.67;;;-4.30;99.90;;;;;;5044727;28;20412;-72
2022/12/13 09:25:55;;;;;;;31.92;16.08;;;-4.10;99.90;;;;;;5034872;28;20472;-71
2022/12/13 09:28:33;;;;;;;28.00;15.38;;;-4.00;99.90;;;;;;5029371;28;20053;-71
2022/12/13 09:31:16;;;;;;;26.42;14.63;;;-3.90;99.90;;;;;;5047675;28;20078;-72
2022/12/13 09:33:44;;;;;;;30.02;15.80;;;-3.80;99.90;;;;;;5045070;28;20056;-72
2022/12/13 09:36:16;;;;;;;31.17;15.77;;;-3.70;99.90;;;;;;5022596;28;20049;-72
2022/12/13 09:38:44;;;;;;;28.83;15.90;;;-3.70;99.90;;;;;;5045039;28;20081;-70
2022/12/13 09:41:20;;;;;;;29.20;14.90;;;-3.60;99.90;;;;;;5029714;28;20479;-71
2022/12/13 09:44:23;;;;;;;28.88;15.38;;;-3.60;99.90;;;;;;5034565;28;20072;-70
2022/12/13 09:47:16;;;;;;;30.50;16.17;;;-3.50;99.90;;;;;;5039840;28;20633;-71
2022/12/13 09:49:51;;;;;;;36.20;19.30;;;-3.40;99.90;;;;;;5029722;28;20567;-70
2022/12/13 09:52:23;;;;;;;41.05;20.00;;;-3.30;99.90;;;;;;5029802;28;20179;-70
2022/12/13 09:54:56;;;;;;;25.98;13.40;;;-3.10;99.90;;;;;;5033507;28;20056;-69
2022/12/13 09:57:30;;;;;;;32.53;17.30;;;-3.00;99.90;;;;;;5025870;28;20112;-70
2022/12/13 10:00:04;;;;;;;35.55;16.95;;;-2.90;99.90;;;;;;5040279;28;20049;-69
2022/12/13 10:02:51;;;;;;;33.17;16.38;;;-2.80;99.90;;;;;;5041458;28;20480;-71
2022/12/13 10:05:22;;;;;;;30.95;16.35;;;-2.80;99.90;;;;;;5041291;28;20037;-71
2022/12/13 10:08:07;;;;;;;28.88;15.95;;;-2.60;99.90;;;;;;5042682;28;20088;-71
2022/12/13 10:10:35;;;;;;;31.70;15.80;;;-2.50;99.90;;;;;;5044282;28;20041;-71
2022/12/13 10:13:20;;;;;;;31.83;17.02;;;-2.40;99.90;;;;;;5017855;28;20459;-70
2022/12/13 10:16:00;;;;;;;31.13;15.77;;;-2.30;99.90;;;;;;5016745;28;20053;-71
2022/12/13 10:18:37;;;;;;;39.45;19.95;;;-2.10;99.90;;;;;;5062521;28;20045;-70
2022/12/13 10:21:14;;;;;;;36.92;19.30;;;-1.90;99.90;;;;;;5046605;28;20049;-71
2022/12/13 10:23:41;;;;;;;34.83;17.75;;;-1.50;99.90;;;;;;5041285;28;20408;-71
2022/12/13 10:26:36;;;;;;;32.58;15.43;;;-1.40;99.90;;;;;;5047148;28;20044;-70
2022/12/13 10:29:05;;;;;;;27.33;15.68;;;-1.10;99.90;;;;;;5019602;28;20071;-73
2022/12/13 10:31:44;;;;;;;30.33;15.55;;;-1.30;99.90;;;;;;5051819;28;20041;-73
2022/12/13 10:34:28;;;;;;;25.63;14.43;;;-1.10;99.90;;;;;;5065987;28;20037;-74
2022/12/13 10:36:55;;;;;;;28.02;14.45;;;-0.70;99.90;;;;;;5031173;28;20116;-72
2022/12/13 10:39:40;;;;;;;25.23;13.20;;;0.40;99.90;;;;;;5048527;28;20130;-72
2022/12/13 10:42:15;;;;;;;;;;;1.80;99.90;;;;;;5043163;28;20403;-71
2022/12/13 10:45:16;;;;;;;23.02;14.00;;;2.50;99.90;;;;;;5051551;28;19982;-71
2022/12/13 10:47:54;;;;;;;23.88;14.10;;;2.60;99.90;;;;;;5049530;28;20033;-72
2022/12/13 10:50:30;;;;;;;29.90;15.02;;;2.40;99.90;;;;;;5049668;28;20051;-72
2022/12/13 10:52:59;;;;;;;23.98;14.82;;;2.80;99.90;;;;;;5050332;28;20049;-71
2022/12/13 10:55:27;;;;;;;27.92;14.23;;;3.30;99.90;;;;;;5031137;28;20107;-73
2022/12/13 10:57:59;;;;;;;23.27;14.07;;;4.00;99.90;;;;;;5049464;28;20056;-72
2022/12/13 11:00:38;;;;;;;23.58;14.25;;;4.60;99.90;;;;;;5036769;28;20415;-73
2022/12/13 11:03:08;;;;;;;22.23;14.23;;;5.10;99.90;;;;;;5042994;28;20053;-73
2022/12/13 11:05:37;;;;;;;19.50;13.50;;;5.00;99.90;;;;;;5034021;28;20045;-73
2022/12/13 11:08:13;;;;;;;22.55;13.82;;;5.20;99.90;;;;;;5022449;28;20064;-72
2022/12/13 11:10:42;;;;;;;23.60;14.15;;;5.10;99.90;;;;;;5019334;28;20047;-72
2022/12/13 11:13:23;;;;;;;23.65;14.95;;;5.10;99.90;;;;;;5034383;28;20419;-72
2022/12/13 11:15:54;;;;;;;23.98;14.30;;;5.90;99.90;;;;;;5052915;28;20059;-73
2022/12/13 11:18:25;;;;;;;19.48;13.43;;;6.00;99.90;;;;;;5025191;28;20575;-74
2022/12/13 11:20:59;;;;;;;21.00;14.88;;;6.40;99.90;;;;;;5045150;28;20056;-74
2022/12/13 11:23:38;;;;;;;18.48;14.13;;;6.70;99.90;;;;;;5045196;28;20582;-74
2022/12/13 11:26:10;;;;;;;22.40;14.95;;;7.10;99.90;;;;;;5042043;28;20049;-73
2022/12/13 11:28:55;;;;;;;19.45;14.00;;;7.60;99.90;;;;;;5046883;28;20037;-73
2022/12/13 11:31:37;;;;;;;17.95;12.82;;;7.60;99.90;;;;;;5042083;28;20496;-74
2022/12/13 11:34:23;;;;;;;17.88;12.90;;;7.70;99.90;;;;;;5050081;28;20041;-73
2022/12/13 11:37:18;;;;;;;20.92;14.18;;;7.50;99.90;;;;;;5040234;28;20041;-73
2022/12/13 11:40:14;;;;;;;17.38;13.40;;;8.00;99.90;;;;;;5037372;28;20048;-73
2022/12/13 11:42:57;;;;;;;18.02;12.73;;;8.80;99.90;;;;;;5029552;28;20053;-74
2022/12/13 11:45:35;;;;;;;17.58;13.20;;;9.50;99.90;;;;;;5042261;28;20571;-75
2022/12/13 11:48:09;;;;;;;18.98;13.63;;;9.20;99.90;;;;;;5044894;28;20037;-75
2022/12/13 11:50:43;;;;;;;19.55;13.40;;;9.30;99.90;;;;;;5048746;28;20041;-74
2022/12/13 11:53:13;;;;;;;17.55;13.05;;;9.90;99.90;;;;;;5048778;28;20155;-74
2022/12/13 11:55:47;;;;;;;17.80;13.82;;;10.60;99.90;;;;;;5050447;28;20364;-75
2022/12/13 11:58:28;;;;;;;15.70;12.30;;;10.40;99.90;;;;;;5050657;28;20041;-74
2022/12/13 12:01:23;;;;;;;15.85;12.05;;;10.20;99.90;;;;;;5044826;28;20104;-74
2022/12/13 12:03:53;;;;;;;16.65;12.30;;;10.40;99.90;;;;;;5022431;28;20049;-75
2022/12/13 12:06:28;;;;;;;16.33;12.60;;;10.00;99.90;;;;;;5028755;28;20050;-75
2022/12/13 12:09:00;;;;;;;15.02;12.25;;;10.40;99.90;;;;;;5050708;28;20455;-75
2022/12/13 12:11:33;;;;;;;15.57;11.70;;;10.40;99.90;;;;;;5045347;28;20037;-75
2022/12/13 12:14:37;;;;;;;14.38;11.02;;;10.40;99.90;;;;;;5050480;28;20052;-75
2022/12/13 12:17:05;;;;;;;15.07;11.88;;;9.60;99.70;;;;;;5047789;28;20077;-76
2022/12/13 12:19:38;;;;;;;15.15;12.05;;;9.50;99.90;;;;;;5047573;28;20056;-75
2022/12/13 12:22:36;;;;;;;17.45;12.50;;;9.20;99.90;;;;;;5051757;28;20044;-74
2022/12/13 12:25:22;;;;;;;15.85;11.50;;;9.10;99.90;;;;;;5051251;28;20044;-74
2022/12/13 12:28:02;;;;;;;19.23;12.48;;;9.00;99.90;;;;;;5029920;28;20401;-75
2022/12/13 12:30:51;;;;;;;16.58;12.95;;;8.90;99.90;;;;;;5050192;28;20045;-75
2022/12/13 12:33:56;;;;;;;20.65;15.73;;;8.80;99.90;;;;;;5051516;28;20045;-75
2022/12/13 12:36:47;;;;;;;15.43;12.05;;;8.80;99.90;;;;;;5046659;28;20052;-74
2022/12/13 12:39:43;;;;;;;15.57;11.15;;;9.20;99.90;;;;;;5044432;28;20515;-74
2022/12/13 12:42:28;;;;;;;13.13;11.15;;;9.50;99.90;;;;;;5036547;28;20045;-74
2022/12/13 12:46:02;;;;;;;15.05;11.43;;;9.80;99.50;;;;;;5018884;28;20041;-74
2022/12/13 12:48:49;;;;;;;15.10;11.20;;;10.30;98.80;;;;;;4976499;28;20080;-74
2022/12/13 12:51:54;;;;;;;14.50;11.18;;;10.60;98.30;;;;;;5009427;28;20104;-74
2022/12/13 12:54:49;;;;;;;14.57;11.48;;;10.70;98.50;;;;;;4992622;28;20054;-75
2022/12/13 12:57:38;;;;;;;16.38;10.70;;;10.60;97.60;;;;;;4983965;28;20049;-75
2022/12/13 13:00:16;;;;;;;15.35;11.02;;;10.70;97.30;;;;;;4992836;28;20049;-74
2022/12/13 13:03:10;;;;;;;12.95;11.20;;;10.30;97.30;;;;;;4976665;28;20053;-75
2022/12/13 13:06:08;;;;;;;15.88;11.00;;;10.10;98.00;;;;;;5008789;28;20049;-74
2022/12/13 13:08:48;;;;;;;13.15;11.02;;;10.10;98.10;;;;;;4992396;28;20046;-74